Current | Forecast
Updated: 3:30 PM CEST on June 25, 2017
Observed at Alicante, Spain
Temperature 29°C
Humidity 62%
Dew Point 21°C
Wind ENE at 26 km/h
Pressure 1014 hPa (Steady)
Conditions Clear
Visibility -
UV N/A
Clouds
Yesterday's Maximum 30°C
Yesterday's Minimum 21°C approx.
Yesterday's Cooling Degree Days 13 approx.
Sunrise6:43 AM CEST
Sunset9:32 PM CEST
Moon Rise8:14 AM CEST
Moon Set10:50 PM CEST
Moon PhaseMoon Phase
Waxing Crescent
Raw METARMETAR LEAL 251330Z 07014KT CAVOK 29/21 Q1014 NOSIG


Monday
. High: 95° F.
Tuesday
. High: 95° F.
Wednesday
. High: 80° F.
Thursday
. High: 82° F.
Friday
. High: 78° F.
Saturday
. High: 89° F.
Sunday
. High: 87° F.
Monday
. High: 82° F.

Click here for Marine Information
Scientific forecaster discussion (NWS)

Units: English | Metric

Find the Weather for any City, State or Zipcode, or Country:

U.S. State List | Severe Weather | Tropical Storms | Ski Conditions
United States | Canada | Central America | South America | Asia | Europe | Australia | Africa | Islands

Weather Underground

© Copyright 2017
The Weather Company, LLC